createdAt,value
2018-04-02T00:00:08.666Z,66.60
2018-04-02T00:01:10.510Z,66.50
2018-04-02T00:02:11.594Z,66.50
2018-04-02T00:03:12.685Z,66.60
2018-04-02T00:04:14.505Z,66.60
2018-04-02T00:05:15.592Z,66.50
2018-04-02T00:06:16.692Z,66.60
2018-04-02T00:07:17.779Z,66.60
2018-04-02T00:08:18.880Z,66.70
2018-04-02T00:09:19.986Z,66.50
2018-04-02T00:10:21.064Z,66.50
2018-04-02T00:11:22.171Z,66.70
2018-04-02T00:12:24.014Z,66.80
2018-04-02T00:13:25.832Z,66.90
2018-04-02T00:14:26.948Z,66.90
2018-04-02T00:15:28.036Z,66.70
2018-04-02T00:16:29.879Z,66.50
2018-04-02T00:17:31.713Z,66.50
2018-04-02T00:18:32.812Z,67.30
2018-04-02T00:19:33.890Z,66.60
2018-04-02T00:20:35.708Z,66.70
2018-04-02T00:21:36.784Z,66.50
2018-04-02T00:22:37.887Z,66.20
2018-04-02T00:23:45.970Z,66.00
2018-04-02T00:24:47.056Z,65.90
2018-04-02T00:25:48.156Z,65.90
2018-04-02T00:26:49.227Z,66.40
2018-04-02T00:27:50.308Z,65.80
2018-04-02T00:28:51.403Z,65.80
2018-04-02T00:29:52.492Z,65.80
2018-04-02T00:30:53.605Z,65.80
2018-04-02T00:31:54.723Z,65.80
2018-04-02T00:32:56.541Z,66.00
2018-04-02T00:33:57.622Z,66.00
2018-04-02T00:34:58.716Z,66.00
2018-04-02T00:35:59.823Z,65.80
2018-04-02T00:37:00.900Z,66.00
2018-04-02T00:38:01.977Z,65.90
2018-04-02T00:39:03.077Z,66.00
2018-04-02T00:40:07.109Z,66.10
2018-04-02T00:41:08.216Z,66.50
2018-04-02T00:42:09.298Z,66.10
2018-04-02T00:43:10.396Z,65.90
2018-04-02T00:44:11.492Z,66.00
2018-04-02T00:45:12.579Z,66.00
2018-04-02T00:46:14.407Z,66.00
2018-04-02T00:47:15.487Z,65.90
2018-04-02T00:48:16.593Z,65.90
2018-04-02T00:49:18.409Z,66.00
2018-04-02T00:50:19.485Z,66.00
2018-04-02T00:51:20.588Z,66.00
2018-04-02T00:52:21.668Z,65.90
2018-04-02T00:53:23.505Z,65.90
2018-04-02T00:54:24.607Z,65.90
2018-04-02T00:55:28.552Z,66.00
2018-04-02T00:56:29.650Z,65.90
2018-04-02T00:57:31.464Z,66.00
2018-04-02T00:58:32.553Z,65.90
2018-04-02T00:59:33.625Z,66.10
2018-04-02T01:00:34.716Z,66.00
2018-04-02T01:01:36.588Z,66.20
2018-04-02T01:02:37.668Z,66.10
2018-04-02T01:03:38.745Z,65.90
2018-04-02T01:04:39.820Z,66.90
2018-04-02T01:05:40.939Z,66.00
2018-04-02T01:06:42.043Z,66.10
2018-04-02T01:07:43.132Z,65.80
2018-04-02T01:08:44.957Z,66.30
2018-04-02T01:09:46.049Z,65.70
2018-04-02T01:10:47.132Z,65.90
2018-04-02T01:11:48.244Z,65.90
2018-04-02T01:12:49.342Z,65.60
2018-04-02T01:13:50.440Z,65.50
2018-04-02T01:14:52.272Z,65.40
2018-04-02T01:15:53.353Z,65.40
2018-04-02T01:16:54.452Z,65.50
2018-04-02T01:17:55.556Z,65.90
2018-04-02T01:20:04.415Z,65.40
2018-04-02T01:21:05.500Z,65.40
2018-04-02T01:22:06.600Z,65.10
2018-04-02T01:23:07.692Z,65.20
2018-04-02T01:24:08.784Z,65.20
2018-04-02T01:25:09.888Z,65.30
2018-04-02T01:26:11.724Z,65.30
2018-04-02T01:27:13.567Z,65.40
2018-04-02T01:28:14.688Z,65.40
2018-04-02T01:29:15.785Z,65.40
2018-04-02T01:30:16.863Z,65.60
2018-04-02T01:31:17.948Z,65.80
2018-04-02T01:32:19.077Z,65.80
2018-04-02T01:33:20.187Z,65.80
2018-04-02T01:34:21.284Z,65.90
2018-04-02T01:35:22.380Z,66.00
2018-04-02T01:36:23.480Z,66.00
2018-04-02T01:37:24.598Z,65.80
2018-04-02T01:38:25.672Z,66.00
2018-04-02T01:39:26.776Z,66.80
2018-04-02T01:40:28.615Z,65.80
2018-04-02T01:41:30.443Z,65.80
2018-04-02T01:42:31.568Z,65.70
2018-04-02T01:43:32.676Z,65.50
2018-04-02T01:44:33.783Z,65.70
2018-04-02T01:45:34.903Z,65.80
2018-04-02T01:46:36.015Z,65.90
2018-04-02T01:47:37.100Z,66.00
2018-04-02T01:48:38.201Z,66.10
2018-04-02T01:49:40.020Z,66.00
2018-04-02T01:50:41.122Z,65.90
2018-04-02T01:51:42.207Z,66.80
2018-04-02T01:52:43.305Z,66.00
2018-04-02T01:53:44.396Z,66.70
2018-04-02T01:54:45.496Z,65.80
2018-04-02T01:55:46.592Z,65.80
2018-04-02T01:56:47.707Z,65.70
2018-04-02T01:57:48.816Z,65.70
2018-04-02T01:58:49.901Z,65.60
2018-04-02T01:59:50.995Z,65.70
2018-04-02T02:00:52.825Z,65.50
2018-04-02T02:01:53.913Z,65.50
2018-04-02T02:02:55.019Z,65.60
2018-04-02T02:03:56.124Z,65.50
2018-04-02T02:04:57.964Z,65.50
2018-04-02T02:05:59.829Z,65.40
2018-04-02T02:07:01.679Z,65.40
2018-04-02T02:08:03.530Z,65.80
2018-04-02T02:09:05.384Z,65.80
2018-04-02T02:10:07.201Z,65.70
2018-04-02T02:11:08.303Z,65.80
2018-04-02T02:12:09.389Z,65.90
2018-04-02T02:13:11.228Z,65.80
2018-04-02T02:14:12.320Z,65.70
2018-04-02T02:15:13.406Z,65.70
2018-04-02T02:16:15.253Z,65.10
2018-04-02T02:17:16.324Z,65.10
2018-04-02T02:18:17.418Z,65.30
2018-04-02T02:19:18.491Z,65.20
2018-04-02T02:20:19.621Z,65.20
2018-04-02T02:21:20.692Z,65.20
2018-04-02T02:22:21.773Z,65.40
2018-04-02T02:23:22.881Z,65.60
2018-04-02T02:24:23.954Z,65.50
2018-04-02T02:25:25.034Z,65.40
2018-04-02T02:26:26.144Z,65.40
2018-04-02T02:27:27.233Z,65.30
2018-04-02T02:28:29.055Z,65.50
2018-04-02T02:29:30.151Z,65.60
2018-04-02T02:30:31.245Z,65.80
2018-04-02T02:31:32.316Z,65.70
2018-04-02T02:32:33.415Z,65.80
2018-04-02T02:33:34.528Z,65.70
2018-04-02T02:34:36.356Z,65.60
2018-04-02T02:35:37.460Z,65.50
2018-04-02T02:36:38.532Z,65.60
2018-04-02T02:37:40.393Z,65.40
2018-04-02T02:38:41.507Z,65.40
2018-04-02T02:39:42.604Z,65.40
2018-04-02T02:40:43.718Z,65.50
2018-04-02T02:41:44.809Z,65.50
2018-04-02T02:42:45.900Z,65.50
2018-04-02T02:43:46.997Z,65.00
2018-04-02T02:44:48.838Z,65.60
2018-04-02T02:45:50.672Z,65.80
2018-04-02T02:46:51.776Z,65.80
2018-04-02T02:47:52.892Z,65.70
2018-04-02T02:48:53.987Z,66.00
2018-04-02T02:49:55.837Z,65.80
2018-04-02T02:50:56.923Z,65.70
2018-04-02T02:51:58.031Z,65.80
2018-04-02T02:52:59.131Z,65.90
2018-04-02T02:54:00.236Z,66.10
2018-04-02T02:55:01.339Z,66.20
2018-04-02T02:56:03.174Z,66.80
2018-04-02T02:57:04.261Z,66.60
2018-04-02T02:58:05.345Z,67.00
2018-04-02T02:59:06.452Z,67.30
2018-04-02T03:00:08.280Z,67.70
2018-04-02T03:01:09.369Z,67.70
2018-04-02T03:02:12.494Z,67.70
2018-04-02T03:03:13.602Z,67.80
2018-04-02T03:04:14.700Z,67.80
2018-04-02T03:05:15.790Z,67.80
2018-04-02T03:06:16.893Z,67.80
2018-04-02T03:07:17.996Z,67.90
2018-04-02T03:08:19.101Z,68.00
2018-04-02T03:09:20.192Z,67.90
2018-04-02T03:10:21.280Z,67.80
2018-04-02T03:11:22.376Z,67.90
2018-04-02T03:12:23.476Z,68.00
2018-04-02T03:13:24.582Z,68.00
2018-04-02T03:14:26.395Z,67.90
2018-04-02T03:15:27.471Z,67.80
2018-04-02T03:16:28.559Z,67.70
2018-04-02T03:17:29.654Z,67.70
2018-04-02T03:18:30.735Z,67.70
2018-04-02T03:19:31.840Z,68.00
2018-04-02T03:20:32.924Z,68.10
2018-04-02T03:21:34.020Z,68.50
2018-04-02T03:22:35.891Z,68.80
2018-04-02T03:23:36.983Z,68.80
2018-04-02T03:24:38.076Z,68.80
2018-04-02T03:25:39.160Z,69.00
2018-04-02T03:26:40.266Z,69.10
2018-04-02T03:27:41.371Z,69.20
2018-04-02T03:28:42.424Z,69.20
2018-04-02T03:29:43.517Z,69.30
2018-04-02T03:30:44.624Z,69.10
2018-04-02T03:31:45.711Z,69.20
2018-04-02T03:32:46.800Z,69.00
2018-04-02T03:33:47.893Z,69.00
2018-04-02T03:34:48.993Z,68.80
2018-04-02T03:35:50.836Z,68.90
2018-04-02T03:36:51.945Z,68.80
2018-04-02T03:37:53.028Z,68.90
2018-04-02T03:38:54.126Z,68.70
2018-04-02T03:39:55.207Z,68.70
2018-04-02T03:40:56.280Z,69.30
2018-04-02T03:41:57.373Z,68.50
2018-04-02T03:42:58.464Z,68.30
2018-04-02T03:43:59.560Z,68.50
2018-04-02T03:45:00.655Z,68.30
2018-04-02T03:46:01.740Z,68.30
2018-04-02T03:47:02.827Z,68.30
2018-04-02T03:48:03.928Z,68.30
2018-04-02T03:49:05.008Z,68.20
2018-04-02T03:50:06.112Z,68.20
2018-04-02T03:51:07.220Z,68.20
2018-04-02T03:52:09.044Z,68.50
2018-04-02T03:53:10.143Z,68.40
2018-04-02T03:54:11.252Z,68.70
2018-04-02T03:55:12.335Z,68.80
2018-04-02T03:56:13.427Z,68.80
2018-04-02T03:57:14.534Z,68.90
2018-04-02T03:58:16.352Z,69.00
2018-04-02T03:59:17.468Z,68.70
2018-04-02T04:00:20.065Z,69.10
2018-04-02T04:01:21.155Z,69.20
2018-04-02T04:02:22.250Z,69.20
2018-04-02T04:03:24.403Z,69.10
2018-04-02T04:04:27.126Z,69.00
2018-04-02T04:05:28.320Z,68.90
2018-04-02T04:06:29.460Z,68.80
2018-04-02T04:07:31.841Z,68.90
2018-04-02T04:08:33.290Z,68.90
2018-04-02T04:09:34.410Z,69.00
2018-04-02T04:10:35.492Z,68.90
2018-04-02T04:11:36.564Z,69.00
2018-04-02T04:12:37.649Z,69.00
2018-04-02T04:13:38.720Z,69.10
2018-04-02T04:14:39.819Z,69.30
2018-04-02T04:15:40.901Z,69.40
2018-04-02T04:16:42.002Z,69.20
2018-04-02T04:17:43.120Z,69.10
2018-04-02T04:18:45.908Z,69.10
2018-04-02T04:19:47.661Z,69.10
2018-04-02T04:20:49.103Z,69.10
2018-04-02T04:21:50.324Z,68.70
2018-04-02T04:22:51.414Z,69.00
2018-04-02T04:23:52.504Z,69.80
2018-04-02T04:24:53.614Z,69.00
2018-04-02T04:25:54.723Z,69.10
2018-04-02T04:26:55.820Z,69.00
2018-04-02T04:27:57.645Z,69.30
2018-04-02T04:28:58.708Z,69.30
2018-04-02T04:29:59.795Z,70.20
2018-04-02T04:31:00.896Z,69.60
2018-04-02T04:32:02.010Z,69.60
2018-04-02T04:33:03.115Z,69.50
2018-04-02T04:34:04.948Z,69.20
2018-04-02T04:35:06.058Z,69.20
2018-04-02T04:36:07.148Z,69.00
2018-04-02T04:37:08.229Z,69.00
2018-04-02T04:38:09.314Z,69.00
2018-04-02T04:39:10.392Z,69.00
2018-04-02T04:40:11.503Z,69.00
2018-04-02T04:41:12.571Z,69.00
2018-04-02T04:42:13.675Z,69.10
2018-04-02T04:43:14.764Z,69.10
2018-04-02T04:44:15.856Z,69.00
2018-04-02T04:45:16.975Z,68.90
2018-04-02T04:46:18.089Z,68.90
2018-04-02T04:47:19.171Z,69.00
2018-04-02T04:48:20.320Z,68.80
2018-04-02T04:49:21.401Z,68.60
2018-04-02T04:50:22.488Z,68.70
2018-04-02T04:51:23.596Z,68.70
2018-04-02T04:52:24.680Z,68.60
2018-04-02T04:53:25.755Z,68.60
2018-04-02T04:54:26.821Z,68.70
2018-04-02T04:55:27.912Z,68.60
2018-04-02T04:56:28.991Z,68.60
2018-04-02T04:57:30.104Z,68.60
2018-04-02T04:58:31.936Z,68.70
2018-04-02T04:59:33.015Z,68.70
2018-04-02T05:00:34.124Z,68.90
2018-04-02T05:01:35.229Z,69.00
2018-04-02T05:02:36.304Z,69.00
2018-04-02T05:03:37.376Z,69.00
2018-04-02T05:04:38.464Z,69.00
2018-04-02T05:05:39.607Z,68.90
2018-04-02T05:06:40.704Z,68.80
2018-04-02T05:07:41.793Z,68.70
2018-04-02T05:08:42.871Z,68.60
2018-04-02T05:09:43.973Z,68.70
2018-04-02T05:10:45.059Z,68.70
2018-04-02T05:11:46.136Z,68.80
2018-04-02T05:12:47.239Z,69.10
2018-04-02T05:13:48.422Z,69.10
2018-04-02T05:14:49.491Z,69.30
2018-04-02T05:15:50.582Z,69.40
2018-04-02T05:16:51.652Z,69.50
2018-04-02T05:17:52.733Z,69.50
2018-04-02T05:18:53.848Z,69.50
2018-04-02T05:19:54.920Z,69.50
2018-04-02T05:20:56.049Z,69.40
2018-04-02T05:21:57.168Z,69.40
2018-04-02T05:22:58.588Z,69.50
2018-04-02T05:23:59.712Z,69.60
2018-04-02T05:25:00.823Z,69.70
2018-04-02T05:26:01.956Z,69.80
2018-04-02T05:27:03.053Z,69.80
2018-04-02T05:28:04.140Z,70.00
2018-04-02T05:29:05.244Z,70.00
2018-04-02T05:30:06.316Z,70.00
2018-04-02T05:31:07.415Z,70.10
2018-04-02T05:32:09.235Z,70.20
2018-04-02T05:33:10.347Z,70.10
2018-04-02T05:34:11.425Z,70.40
2018-04-02T05:35:13.243Z,70.30
2018-04-02T05:36:14.342Z,70.30
2018-04-02T05:37:15.456Z,70.40
2018-04-02T05:38:16.538Z,70.40
2018-04-02T05:39:17.615Z,70.40
2018-04-02T05:40:18.708Z,70.40
2018-04-02T05:41:19.820Z,70.40
2018-04-02T05:42:20.895Z,70.40
2018-04-02T05:43:21.959Z,70.40
2018-04-02T05:44:23.040Z,70.30
2018-04-02T05:45:24.111Z,70.40
2018-04-02T05:46:25.214Z,70.40
2018-04-02T05:47:26.336Z,70.40
2018-04-02T05:48:27.416Z,70.10
2018-04-02T05:49:28.510Z,70.10
2018-04-02T05:50:29.610Z,70.00
2018-04-02T05:51:30.701Z,69.60
2018-04-02T05:52:31.786Z,69.60
2018-04-02T05:53:32.875Z,69.50
2018-04-02T05:54:33.932Z,69.30
2018-04-02T05:55:35.003Z,69.30
2018-04-02T05:56:36.107Z,69.40
2018-04-02T05:57:37.196Z,69.40
2018-04-02T05:58:38.278Z,69.40
2018-04-02T05:59:39.362Z,69.50
2018-04-02T06:00:40.462Z,69.50
2018-04-02T06:01:41.539Z,69.40
2018-04-02T06:02:42.649Z,69.40
2018-04-02T06:03:44.479Z,69.50
2018-04-02T06:04:45.601Z,69.50
2018-04-02T06:05:46.692Z,69.50
2018-04-02T06:06:47.773Z,70.30
2018-04-02T06:07:48.860Z,69.50
2018-04-02T06:08:50.684Z,69.40
2018-04-02T06:09:51.782Z,69.30
2018-04-02T06:10:52.876Z,68.90
2018-04-02T06:11:54.000Z,68.70
2018-04-02T06:12:55.077Z,68.80
2018-04-02T06:13:56.167Z,69.70
2018-04-02T06:14:57.268Z,68.50
2018-04-02T06:15:58.412Z,68.40
2018-04-02T06:16:59.460Z,69.10
2018-04-02T06:18:00.546Z,68.20
2018-04-02T06:19:01.635Z,68.00
2018-04-02T06:20:02.737Z,67.90
2018-04-02T06:21:03.831Z,67.60
2018-04-02T06:22:04.944Z,67.70
2018-04-02T06:23:06.040Z,67.60
2018-04-02T06:24:07.141Z,67.70
2018-04-02T06:25:08.227Z,67.50
2018-04-02T06:26:09.318Z,67.20
2018-04-02T06:27:11.168Z,67.00
2018-04-02T06:28:12.271Z,67.00
2018-04-02T06:29:13.345Z,67.10
2018-04-02T06:30:14.422Z,67.20
2018-04-02T06:31:15.499Z,67.30
2018-04-02T06:32:16.579Z,67.00
2018-04-02T06:33:17.656Z,67.80
2018-04-02T06:34:18.732Z,67.10
2018-04-02T06:35:19.820Z,67.00
2018-04-02T06:36:20.904Z,66.90
2018-04-02T06:37:22.004Z,67.00
2018-04-02T06:38:23.088Z,66.90
2018-04-02T06:39:24.168Z,66.70
2018-04-02T06:40:25.251Z,66.60
2018-04-02T06:41:26.332Z,66.40
2018-04-02T06:42:27.435Z,67.00
2018-04-02T06:43:28.538Z,66.10
2018-04-02T06:44:29.612Z,65.70
2018-04-02T06:45:30.688Z,65.70
2018-04-02T06:46:31.768Z,65.80
2018-04-02T06:47:32.878Z,65.80
2018-04-02T06:48:33.960Z,65.80
2018-04-02T06:49:35.032Z,65.80
2018-04-02T06:50:36.107Z,65.80
2018-04-02T06:51:37.188Z,65.80
2018-04-02T06:52:38.266Z,65.80
2018-04-02T06:53:39.344Z,65.70
2018-04-02T06:54:40.437Z,65.80
2018-04-02T06:55:41.520Z,65.80
2018-04-02T06:56:42.631Z,65.60
2018-04-02T06:57:43.723Z,65.60
2018-04-02T06:58:44.812Z,65.70
2018-04-02T06:59:45.883Z,65.70
2018-04-02T07:00:46.973Z,65.70
2018-04-02T07:01:48.104Z,65.70
2018-04-02T07:02:49.232Z,65.30
2018-04-02T07:03:50.335Z,65.30
2018-04-02T07:04:51.415Z,65.40
2018-04-02T07:05:52.521Z,65.30
2018-04-02T07:06:55.224Z,65.10
2018-04-02T07:07:56.326Z,65.10
2018-04-02T07:08:58.158Z,64.50
2018-04-02T07:09:59.984Z,64.50
2018-04-02T07:11:01.105Z,64.50
2018-04-02T07:12:02.150Z,64.50
2018-04-02T07:13:03.295Z,63.80
2018-04-02T07:14:04.392Z,64.10
2018-04-02T07:15:05.533Z,63.50
2018-04-02T07:16:06.651Z,63.30
2018-04-02T07:17:07.751Z,63.20
2018-04-02T07:18:09.600Z,63.10
2018-04-02T07:19:10.709Z,62.90
2018-04-02T07:20:11.800Z,62.80
2018-04-02T07:21:12.900Z,63.00
2018-04-02T07:22:14.773Z,62.60
2018-04-02T07:23:15.869Z,62.50
2018-04-02T07:24:16.951Z,62.30
2018-04-02T07:25:18.052Z,62.20
2018-04-02T07:26:19.868Z,61.90
2018-04-02T07:27:20.973Z,61.90
2018-04-02T07:28:22.085Z,61.90
2018-04-02T07:29:23.226Z,61.90
2018-04-02T07:30:24.304Z,62.00
2018-04-02T07:31:25.464Z,62.00
2018-04-02T07:32:27.290Z,61.90
2018-04-02T07:33:28.383Z,61.90
2018-04-02T07:34:29.479Z,61.80
2018-04-02T07:35:31.320Z,61.70
2018-04-02T07:36:33.185Z,61.90
2018-04-02T07:37:35.004Z,61.20
2018-04-02T07:38:36.092Z,61.20
2018-04-02T07:39:37.188Z,61.30
2018-04-02T07:40:39.019Z,61.00
2018-04-02T07:41:40.887Z,61.50
2018-04-02T07:42:42.708Z,61.20
2018-04-02T07:43:43.813Z,61.20
2018-04-02T07:44:44.900Z,62.20
2018-04-02T07:45:46.803Z,61.40
2018-04-02T07:46:47.900Z,61.30
2018-04-02T07:47:49.017Z,61.30
2018-04-02T07:48:50.150Z,60.90
2018-04-02T07:49:51.998Z,60.50
2018-04-02T07:50:53.084Z,60.50
2018-04-02T07:51:54.916Z,60.60
2018-04-02T07:52:57.488Z,60.50
2018-04-02T07:53:59.429Z,60.60
2018-04-02T07:55:00.640Z,60.60
2018-04-02T07:56:01.740Z,60.20
2018-04-02T07:57:02.868Z,60.00
2018-04-02T07:58:03.955Z,60.40
2018-04-02T07:59:05.051Z,60.10
2018-04-02T08:00:06.132Z,60.30
2018-04-02T08:01:07.217Z,60.00
2018-04-02T08:02:08.340Z,59.70
2018-04-02T08:03:09.416Z,59.90
2018-04-02T08:04:10.517Z,60.00
2018-04-02T08:05:11.588Z,59.90
2018-04-02T08:06:12.695Z,59.70
2018-04-02T08:07:13.780Z,59.20
2018-04-02T08:08:14.874Z,59.40
2018-04-02T08:09:15.984Z,59.20
2018-04-02T08:10:17.812Z,57.70
2018-04-02T08:11:18.908Z,57.50
2018-04-02T08:12:20.020Z,57.40
2018-04-02T08:13:21.841Z,58.90
2018-04-02T08:14:22.932Z,58.90
2018-04-02T08:15:24.020Z,59.00
2018-04-02T08:16:25.093Z,57.90
2018-04-02T08:17:26.193Z,58.00
2018-04-02T08:18:27.279Z,57.90
2018-04-02T08:19:28.364Z,57.70
2018-04-02T08:20:29.483Z,57.60
2018-04-02T08:21:30.572Z,57.60
2018-04-02T08:22:31.666Z,57.80
2018-04-02T08:23:33.512Z,57.80
2018-04-02T08:24:34.616Z,57.70
2018-04-02T08:25:35.735Z,57.50
2018-04-02T08:26:36.831Z,57.10
2018-04-02T08:27:37.916Z,57.40
2018-04-02T08:28:39.020Z,56.50
2018-04-02T08:29:40.119Z,56.80
2018-04-02T08:30:41.215Z,57.50
2018-04-02T08:31:42.317Z,57.40
2018-04-02T08:32:43.468Z,57.80
2018-04-02T08:33:44.515Z,57.90
2018-04-02T08:34:45.648Z,57.50
2018-04-02T08:35:46.732Z,57.20
2018-04-02T08:36:47.807Z,56.90
2018-04-02T08:37:48.896Z,56.90
2018-04-02T08:38:50.042Z,56.80
2018-04-02T08:39:51.192Z,56.70
2018-04-02T08:40:52.300Z,56.10
2018-04-02T08:41:54.172Z,56.70
2018-04-02T08:42:55.774Z,56.70
2018-04-02T08:43:56.869Z,55.40
2018-04-02T08:44:57.971Z,55.70
2018-04-02T08:45:59.084Z,56.20
2018-04-02T08:47:00.172Z,56.40
2018-04-02T08:48:02.209Z,55.50
2018-04-02T08:49:03.287Z,55.70
2018-04-02T08:50:04.387Z,54.90
2018-04-02T08:51:05.492Z,55.50
2018-04-02T08:52:06.581Z,54.40
2018-04-02T08:53:07.665Z,54.80
2018-04-02T08:54:08.764Z,56.20
2018-04-02T08:55:09.876Z,55.70
2018-04-02T08:56:11.700Z,54.40
2018-04-02T08:57:12.772Z,54.40
2018-04-02T08:58:14.768Z,55.10
2018-04-02T08:59:15.867Z,55.30
2018-04-02T09:00:16.979Z,55.40
2018-04-02T09:01:18.188Z,55.10
2018-04-02T09:02:19.290Z,53.90
2018-04-02T09:03:20.380Z,54.60
2018-04-02T09:04:21.495Z,53.80
2018-04-02T09:05:23.358Z,53.20
2018-04-02T09:06:25.502Z,53.20
2018-04-02T09:07:26.645Z,52.30
2018-04-02T09:08:28.492Z,53.40
2018-04-02T09:09:30.319Z,53.20
2018-04-02T09:10:31.444Z,53.30
2018-04-02T09:11:32.556Z,52.90
2018-04-02T09:12:33.641Z,52.20
2018-04-02T09:13:34.732Z,52.00
2018-04-02T09:14:35.823Z,52.80
2018-04-02T09:15:37.898Z,52.70
2018-04-02T09:16:38.991Z,53.30
2018-04-02T09:17:40.149Z,52.90
2018-04-02T09:18:41.236Z,53.00
2018-04-02T09:19:42.363Z,52.20
2018-04-02T09:20:43.496Z,52.10
2018-04-02T09:21:44.626Z,52.50
2018-04-02T09:22:45.736Z,52.50
2018-04-02T09:23:46.816Z,51.50
2018-04-02T09:24:48.707Z,51.50
2018-04-02T09:25:50.590Z,51.70
2018-04-02T09:26:52.087Z,51.70
2018-04-02T09:27:53.205Z,51.50
2018-04-02T09:28:54.332Z,51.40
2018-04-02T09:29:55.413Z,50.70
2018-04-02T09:30:56.517Z,50.90
2018-04-02T09:31:57.618Z,50.90
2018-04-02T09:32:58.704Z,51.00
2018-04-02T09:33:59.790Z,50.20
2018-04-02T09:35:00.892Z,50.10
2018-04-02T09:36:01.972Z,48.70
2018-04-02T09:37:03.084Z,50.50
2018-04-02T09:38:04.164Z,49.80
2018-04-02T09:39:05.280Z,48.80
2018-04-02T09:40:06.364Z,49.50
2018-04-02T09:41:07.460Z,49.40
2018-04-02T09:42:08.543Z,48.50
2018-04-02T09:43:09.644Z,49.50
2018-04-02T09:44:10.727Z,49.40
2018-04-02T09:45:11.836Z,49.50
2018-04-02T09:46:12.964Z,49.20
2018-04-02T09:47:15.020Z,50.10
2018-04-02T09:48:16.119Z,49.40
2018-04-02T09:49:17.196Z,49.80
2018-04-02T09:50:18.301Z,49.90
2018-04-02T09:51:19.396Z,49.70
2018-04-02T09:52:20.485Z,50.40
2018-04-02T09:53:21.572Z,49.10
2018-04-02T09:54:22.662Z,49.50
2018-04-02T09:55:24.507Z,48.10
2018-04-02T09:56:25.608Z,48.10
2018-04-02T09:57:27.532Z,48.80
2018-04-02T09:58:28.642Z,49.80
2018-04-02T09:59:29.803Z,48.80
2018-04-02T10:00:32.450Z,48.70
2018-04-02T10:01:34.305Z,49.50
2018-04-02T10:02:35.404Z,49.50
2018-04-02T10:03:38.312Z,49.00
2018-04-02T10:04:42.451Z,49.40
2018-04-02T10:05:43.372Z,47.90
2018-04-02T10:06:44.495Z,47.70
2018-04-02T10:07:45.684Z,47.00
2018-04-02T10:08:47.412Z,47.00
2018-04-02T10:09:48.532Z,47.10
2018-04-02T10:10:49.636Z,47.10
2018-04-02T10:11:50.749Z,47.20
2018-04-02T10:12:51.953Z,47.20
2018-04-02T10:13:53.808Z,46.90
2018-04-02T10:14:54.943Z,46.80
2018-04-02T10:15:56.020Z,46.90
2018-04-02T10:16:57.108Z,47.40
2018-04-02T10:17:58.220Z,45.80
2018-04-02T10:18:59.331Z,46.80
2018-04-02T10:20:00.420Z,46.30
2018-04-02T10:21:01.527Z,46.70
2018-04-02T10:22:02.644Z,45.80
2018-04-02T10:23:03.791Z,45.40
2018-04-02T10:24:04.968Z,46.40
2018-04-02T10:25:06.741Z,46.30
2018-04-02T10:26:07.833Z,46.20
2018-04-02T10:27:09.019Z,46.30
2018-04-02T10:28:10.640Z,45.10
2018-04-02T10:29:11.724Z,44.30
2018-04-02T10:30:12.829Z,44.00
2018-04-02T10:31:13.982Z,44.20
2018-04-02T10:32:15.125Z,45.30
2018-04-02T10:33:16.221Z,45.80
2018-04-02T10:34:17.400Z,43.50
2018-04-02T10:35:18.539Z,44.40
2018-04-02T10:36:19.645Z,44.20
2018-04-02T10:37:20.771Z,45.10
2018-04-02T10:38:21.868Z,45.10
2018-04-02T10:39:22.977Z,44.90
2018-04-02T10:40:24.833Z,44.30
2018-04-02T10:41:25.952Z,44.20
2018-04-02T10:42:27.123Z,44.90
2018-04-02T10:43:28.244Z,43.50
2018-04-02T10:44:30.124Z,42.90
2018-04-02T10:45:31.253Z,42.90
2018-04-02T10:46:32.345Z,43.50
2018-04-02T10:47:34.197Z,42.80
2018-04-02T10:48:35.295Z,42.70
2018-04-02T10:49:36.396Z,44.30
2018-04-02T10:50:37.535Z,43.50
2018-04-02T10:51:38.634Z,43.40
2018-04-02T10:52:40.472Z,42.10
2018-04-02T10:53:42.348Z,42.40
2018-04-02T10:54:43.443Z,42.40
2018-04-02T10:55:44.535Z,42.90
2018-04-02T10:56:45.635Z,42.60
2018-04-02T10:57:47.495Z,42.50
2018-04-02T10:58:48.596Z,42.50
2018-04-02T10:59:49.746Z,43.60
2018-04-02T11:00:50.816Z,42.10
2018-04-02T11:01:51.928Z,42.30
2018-04-02T11:02:53.052Z,41.50
2018-04-02T11:03:54.155Z,41.50
2018-04-02T11:04:55.264Z,42.30
2018-04-02T11:05:56.373Z,42.20
2018-04-02T11:06:57.504Z,42.80
2018-04-02T11:07:58.648Z,42.40
2018-04-02T11:08:59.809Z,43.20
2018-04-02T11:10:00.968Z,41.50
2018-04-02T11:11:03.173Z,41.50
2018-04-02T11:12:04.454Z,41.60
2018-04-02T11:13:05.568Z,42.20
2018-04-02T11:14:06.667Z,41.70
2018-04-02T11:15:07.800Z,41.80
2018-04-02T11:16:08.916Z,42.50
2018-04-02T11:17:10.052Z,41.40
2018-04-02T11:18:11.159Z,40.20
2018-04-02T11:19:12.265Z,41.20
2018-04-02T11:20:13.400Z,43.20
2018-04-02T11:21:14.508Z,41.80
2018-04-02T11:22:15.609Z,41.90
2018-04-02T11:23:16.745Z,42.40
2018-04-02T11:24:18.588Z,41.20
2018-04-02T11:25:20.425Z,43.10
2018-04-02T11:26:21.529Z,43.10
2018-04-02T11:27:22.633Z,42.60
2018-04-02T11:28:23.741Z,40.90
2018-04-02T11:29:24.896Z,40.80
2018-04-02T11:30:26.031Z,41.10
2018-04-02T11:31:27.121Z,40.20
2018-04-02T11:32:28.224Z,41.90
2018-04-02T11:33:29.351Z,40.90
2018-04-02T11:34:31.176Z,41.70
2018-04-02T11:35:32.284Z,41.60
2018-04-02T11:36:34.135Z,40.20
2018-04-02T11:37:35.262Z,40.20
2018-04-02T11:38:37.079Z,38.90
2018-04-02T11:39:38.160Z,38.90
2018-04-02T11:40:39.347Z,39.10
2018-04-02T11:41:40.448Z,40.10
2018-04-02T11:42:41.527Z,38.40
2018-04-02T11:43:42.600Z,38.70
2018-04-02T11:44:43.709Z,39.20
2018-04-02T11:45:45.592Z,38.80
2018-04-02T11:46:46.679Z,38.50
2018-04-02T11:47:47.800Z,39.10
2018-04-02T11:48:48.899Z,38.00
2018-04-02T11:49:49.984Z,37.70
2018-04-02T11:50:51.114Z,38.70
2018-04-02T11:51:52.284Z,38.70
2018-04-02T11:52:53.428Z,38.60
2018-04-02T11:53:54.584Z,38.40
2018-04-02T11:54:55.689Z,39.00
2018-04-02T11:55:56.780Z,39.00
2018-04-02T11:56:57.856Z,38.40
2018-04-02T11:57:58.956Z,39.00
2018-04-02T11:59:00.043Z,38.80
2018-04-02T12:00:01.134Z,37.70
2018-04-02T12:01:02.258Z,37.80
2018-04-02T12:02:03.347Z,36.70
2018-04-02T12:03:04.432Z,37.00
2018-04-02T12:04:05.540Z,36.60
2018-04-02T12:05:06.620Z,37.50
2018-04-02T12:06:08.467Z,36.00
2018-04-02T12:07:09.544Z,36.00
2018-04-02T12:08:10.660Z,36.10
2018-04-02T12:09:11.794Z,36.40
2018-04-02T12:10:13.689Z,36.10
2018-04-02T12:11:15.520Z,37.20
2018-04-02T12:12:16.609Z,37.20
2018-04-02T12:13:17.734Z,37.30
2018-04-02T12:14:18.820Z,37.00
2018-04-02T12:15:19.913Z,37.80
2018-04-02T12:16:21.000Z,39.40
2018-04-02T12:17:22.846Z,38.40
2018-04-02T12:18:24.688Z,38.40
2018-04-02T12:19:25.783Z,38.40
2018-04-02T12:20:26.882Z,38.90
2018-04-02T12:21:27.967Z,38.40
2018-04-02T12:22:29.056Z,37.20
2018-04-02T12:23:30.136Z,37.00
2018-04-02T12:24:31.247Z,36.60
2018-04-02T12:25:32.393Z,37.80
2018-04-02T12:26:33.445Z,38.20
2018-04-02T12:27:35.312Z,37.90
2018-04-02T12:28:36.432Z,38.00
2018-04-02T12:29:38.279Z,36.20
2018-04-02T12:30:39.453Z,36.00
2018-04-02T12:31:40.584Z,36.80
2018-04-02T12:32:41.676Z,36.80
2018-04-02T12:33:42.775Z,35.30
2018-04-02T12:34:43.848Z,35.60
2018-04-02T12:35:45.687Z,35.70
2018-04-02T12:36:46.764Z,35.50
2018-04-02T12:37:47.835Z,36.10
2018-04-02T12:38:48.932Z,35.60
2018-04-02T12:39:50.012Z,35.80
2018-04-02T12:40:51.097Z,36.60
2018-04-02T12:41:52.188Z,36.20
2018-04-02T12:42:53.284Z,34.70
2018-04-02T12:43:54.388Z,35.30
2018-04-02T12:44:55.480Z,35.90
2018-04-02T12:45:56.563Z,35.70
2018-04-02T12:48:06.264Z,34.90
2018-04-02T12:49:08.096Z,35.20
2018-04-02T12:50:09.191Z,35.20
2018-04-02T12:51:10.304Z,33.50
2018-04-02T12:52:11.389Z,33.00
2018-04-02T12:53:12.484Z,32.80
2018-04-02T12:54:13.572Z,33.60
2018-04-02T12:55:14.653Z,33.50
2018-04-02T12:56:15.733Z,32.80
2018-04-02T12:57:16.845Z,33.10
2018-04-02T12:58:17.922Z,33.30
2018-04-02T12:59:19.763Z,32.80
2018-04-02T13:00:21.589Z,33.00
2018-04-02T13:01:22.676Z,32.80
2018-04-02T13:02:23.760Z,33.10
2018-04-02T13:03:24.857Z,32.20
2018-04-02T13:04:25.968Z,33.10
2018-04-02T13:05:27.063Z,31.70
2018-04-02T13:06:28.144Z,32.20
2018-04-02T13:07:29.229Z,31.80
2018-04-02T13:08:30.332Z,30.00
2018-04-02T13:09:31.440Z,30.00
2018-04-02T13:10:32.574Z,31.10